createdAt,value
2023-01-23T00:01:56.644Z,16.20
2023-01-23T00:04:23.033Z,15.48
2023-01-23T00:06:50.709Z,15.27
2023-01-23T00:09:17.829Z,15.63
2023-01-23T00:11:44.167Z,16.27
2023-01-23T00:14:10.968Z,14.85
2023-01-23T00:16:37.338Z,16.05
2023-01-23T00:19:03.736Z,15.18
2023-01-23T00:21:30.538Z,16.02
2023-01-23T00:23:57.728Z,16.98
2023-01-23T00:26:25.952Z,16.83
2023-01-23T00:28:53.031Z,16.17
2023-01-23T00:31:21.330Z,16.50
2023-01-23T00:33:47.904Z,16.17
2023-01-23T00:36:14.929Z,14.85
2023-01-23T00:38:41.977Z,16.20
2023-01-23T00:41:08.426Z,15.70
2023-01-23T00:43:34.950Z,16.45
2023-01-23T00:46:01.422Z,16.50
2023-01-23T00:48:27.965Z,14.65
2023-01-23T00:50:54.466Z,16.45
2023-01-23T00:53:21.142Z,16.45
2023-01-23T00:55:47.550Z,17.15
2023-01-23T00:58:13.998Z,16.73
2023-01-23T01:00:40.830Z,16.65
2023-01-23T01:03:07.589Z,16.27
2023-01-23T01:05:34.231Z,15.57
2023-01-23T01:08:01.787Z,17.30
2023-01-23T01:10:29.564Z,15.75
2023-01-23T01:12:56.656Z,16.83
2023-01-23T01:15:23.049Z,16.73
2023-01-23T01:17:49.561Z,16.25
2023-01-23T01:20:16.041Z,15.88
2023-01-23T01:22:42.430Z,16.27
2023-01-23T01:25:08.972Z,14.65
2023-01-23T01:27:35.363Z,16.80
2023-01-23T01:30:02.255Z,16.48
2023-01-23T01:32:28.647Z,16.27
2023-01-23T01:34:55.155Z,15.57
2023-01-23T01:37:23.815Z,16.48
2023-01-23T01:39:50.171Z,16.42
2023-01-23T01:42:17.892Z,16.58
2023-01-23T01:44:54.919Z,16.80
2023-01-23T01:47:21.400Z,16.48
2023-01-23T01:49:48.402Z,17.08
2023-01-23T01:52:15.810Z,16.10
2023-01-23T01:54:54.137Z,18.17
2023-01-23T01:57:22.367Z,17.30
2023-01-23T01:59:55.583Z,17.75
2023-01-23T02:02:25.067Z,17.48
2023-01-23T02:04:53.588Z,17.33
2023-01-23T02:07:32.471Z,18.95
2023-01-23T02:09:59.469Z,16.38
2023-01-23T02:12:27.018Z,16.73
2023-01-23T02:14:53.643Z,17.42
2023-01-23T02:17:20.123Z,18.00
2023-01-23T02:20:19.083Z,18.30
2023-01-23T02:23:06.806Z,17.58
2023-01-23T02:25:36.364Z,18.00
2023-01-23T02:28:02.943Z,18.40
2023-01-23T02:30:29.474Z,17.95
2023-01-23T02:33:07.266Z,16.92
2023-01-23T02:35:33.654Z,18.25
2023-01-23T02:38:02.376Z,18.63
2023-01-23T02:40:33.076Z,17.77
2023-01-23T02:43:00.162Z,18.00
2023-01-23T02:45:27.538Z,17.27
2023-01-23T02:47:53.954Z,17.55
2023-01-23T02:50:20.617Z,17.63
2023-01-23T02:52:47.281Z,17.90
2023-01-23T02:55:13.871Z,18.70
2023-01-23T02:57:40.352Z,17.70
2023-01-23T03:00:22.840Z,17.20
2023-01-23T03:02:50.465Z,18.33
2023-01-23T03:05:17.881Z,18.27
2023-01-23T03:07:44.465Z,18.92
2023-01-23T03:10:11.691Z,17.65
2023-01-23T03:12:42.540Z,18.02
2023-01-23T03:15:09.565Z,17.73
2023-01-23T03:17:37.314Z,17.88
2023-01-23T03:20:06.021Z,18.52
2023-01-23T03:22:32.384Z,18.92
2023-01-23T03:24:58.873Z,18.48
2023-01-23T03:27:26.383Z,18.38
2023-01-23T03:30:11.426Z,17.10
2023-01-23T03:32:38.686Z,17.85
2023-01-23T03:35:06.136Z,17.23
2023-01-23T03:37:32.563Z,16.73
2023-01-23T03:40:17.808Z,18.60
2023-01-23T03:42:44.417Z,18.55
2023-01-23T03:45:10.872Z,17.85
2023-01-23T03:47:37.290Z,17.42
2023-01-23T03:50:03.954Z,18.00
2023-01-23T03:52:30.744Z,17.13
2023-01-23T03:54:57.187Z,17.48
2023-01-23T03:57:23.595Z,18.02
2023-01-23T03:59:49.956Z,17.15
2023-01-23T04:02:16.620Z,17.88
2023-01-23T04:04:43.243Z,17.75
2023-01-23T04:07:09.688Z,16.52
2023-01-23T04:09:39.259Z,17.05
2023-01-23T04:12:05.784Z,18.27
2023-01-23T04:14:37.169Z,17.58
2023-01-23T04:17:04.688Z,18.00
2023-01-23T04:19:31.257Z,18.58
2023-01-23T04:21:57.676Z,19.15
2023-01-23T04:24:24.128Z,16.55
2023-01-23T04:26:50.831Z,18.38
2023-01-23T04:29:17.396Z,18.00
2023-01-23T04:31:44.310Z,17.85
2023-01-23T04:34:10.765Z,17.08
2023-01-23T04:36:37.362Z,16.30
2023-01-23T04:39:04.353Z,17.65
2023-01-23T04:41:31.280Z,18.95
2023-01-23T04:44:17.712Z,16.52
2023-01-23T04:46:44.741Z,18.17
2023-01-23T04:49:13.536Z,17.75
2023-01-23T04:51:39.879Z,16.95
2023-01-23T04:54:06.492Z,16.67
2023-01-23T04:56:32.958Z,16.75
2023-01-23T04:58:59.301Z,18.00
2023-01-23T05:01:25.692Z,17.52
2023-01-23T05:03:52.416Z,17.55
2023-01-23T05:06:19.084Z,17.55
2023-01-23T05:08:45.890Z,17.92
2023-01-23T05:11:12.398Z,17.00
2023-01-23T05:13:38.839Z,16.67
2023-01-23T05:16:08.156Z,17.75
2023-01-23T05:18:34.596Z,17.08
2023-01-23T05:21:00.939Z,17.55
2023-01-23T05:23:27.385Z,17.98
2023-01-23T05:25:53.874Z,17.75
2023-01-23T05:28:20.283Z,18.85
2023-01-23T05:30:46.966Z,17.67
2023-01-23T05:33:13.361Z,18.08
2023-01-23T05:35:41.861Z,18.73
2023-01-23T05:38:08.263Z,18.42
2023-01-23T05:40:34.586Z,17.02
2023-01-23T05:43:00.989Z,16.77
2023-01-23T05:45:27.532Z,16.67
2023-01-23T05:47:55.806Z,17.00
2023-01-23T05:50:25.476Z,17.40
2023-01-23T05:52:51.862Z,16.15
2023-01-23T05:55:18.348Z,16.02
2023-01-23T05:57:44.701Z,17.10
2023-01-23T06:00:14.166Z,17.38
2023-01-23T06:02:40.957Z,16.10
2023-01-23T06:05:07.529Z,16.98
2023-01-23T06:07:33.866Z,17.30
2023-01-23T06:10:00.336Z,16.08
2023-01-23T06:12:26.775Z,16.77
2023-01-23T06:14:53.318Z,15.00
2023-01-23T06:17:19.740Z,15.55
2023-01-23T06:19:46.113Z,16.92
2023-01-23T06:22:12.440Z,15.43
2023-01-23T06:24:38.891Z,16.63
2023-01-23T06:27:08.264Z,14.45
2023-01-23T06:29:37.726Z,15.85
2023-01-23T06:32:04.374Z,16.35
2023-01-23T06:34:30.768Z,15.63
2023-01-23T06:36:57.188Z,16.08
2023-01-23T06:39:23.627Z,15.52
2023-01-23T06:41:50.017Z,16.52
2023-01-23T06:44:16.373Z,16.55
2023-01-23T06:46:42.775Z,16.80
2023-01-23T06:49:10.027Z,16.80
2023-01-23T06:51:36.391Z,16.33
2023-01-23T06:54:02.826Z,16.75
2023-01-23T06:56:29.194Z,16.40
2023-01-23T06:58:55.558Z,16.95
2023-01-23T07:01:21.996Z,17.98
2023-01-23T07:03:48.582Z,16.20
2023-01-23T07:06:15.272Z,16.17
2023-01-23T07:08:42.036Z,16.65
2023-01-23T07:11:08.657Z,16.33
2023-01-23T07:13:35.394Z,17.13
2023-01-23T07:16:02.142Z,16.20
2023-01-23T07:18:30.240Z,16.23
2023-01-23T07:20:56.676Z,17.20
2023-01-23T07:23:23.775Z,16.73
2023-01-23T07:25:50.196Z,19.23
2023-01-23T07:28:16.629Z,18.35
2023-01-23T07:30:43.065Z,18.35
2023-01-23T07:33:09.697Z,18.15
2023-01-23T07:35:38.189Z,17.00
2023-01-23T07:38:04.588Z,18.92
2023-01-23T07:40:30.966Z,16.38
2023-01-23T07:42:57.491Z,18.08
2023-01-23T07:45:23.876Z,16.02
2023-01-23T07:47:50.327Z,16.95
2023-01-23T07:50:16.859Z,17.05
2023-01-23T07:52:43.174Z,16.35
2023-01-23T07:55:09.627Z,16.10
2023-01-23T07:57:35.985Z,17.13
2023-01-23T08:00:02.646Z,17.33
2023-01-23T08:02:28.963Z,17.17
2023-01-23T08:04:55.365Z,16.70
2023-01-23T08:07:21.911Z,16.33
2023-01-23T08:09:48.222Z,16.42
2023-01-23T08:12:14.612Z,18.13
2023-01-23T08:14:41.373Z,16.88
2023-01-23T08:17:07.728Z,16.02
2023-01-23T08:19:34.153Z,16.98
2023-01-23T08:22:00.502Z,16.92
2023-01-23T08:24:26.931Z,16.63
2023-01-23T08:26:53.353Z,16.83
2023-01-23T08:29:19.965Z,16.08
2023-01-23T08:31:46.381Z,16.83
2023-01-23T08:34:12.733Z,18.25
2023-01-23T08:36:39.367Z,17.05
2023-01-23T08:39:05.884Z,16.73
2023-01-23T08:41:32.239Z,16.15
2023-01-23T08:44:01.663Z,16.65
2023-01-23T08:46:29.167Z,16.63
2023-01-23T08:48:55.642Z,15.77
2023-01-23T08:51:22.043Z,15.45
2023-01-23T08:53:51.568Z,15.85
2023-01-23T08:56:18.714Z,14.05
2023-01-23T08:58:45.459Z,13.40
2023-01-23T09:01:15.214Z,14.98
2023-01-23T09:03:41.801Z,14.93
2023-01-23T09:06:09.336Z,15.00
2023-01-23T09:08:36.768Z,14.27
2023-01-23T09:11:04.350Z,14.68
2023-01-23T09:13:31.086Z,14.45
2023-01-23T09:15:57.459Z,14.82
2023-01-23T09:18:24.957Z,13.95
2023-01-23T09:20:51.789Z,14.40
2023-01-23T09:23:18.147Z,13.48
2023-01-23T09:25:47.631Z,14.50
2023-01-23T09:28:24.673Z,14.20
2023-01-23T09:30:51.413Z,14.10
2023-01-23T09:33:18.110Z,14.00
2023-01-23T09:35:45.564Z,14.20
2023-01-23T09:38:11.986Z,13.77
2023-01-23T09:40:45.571Z,14.57
2023-01-23T09:43:14.965Z,13.85
2023-01-23T09:45:43.697Z,13.73
2023-01-23T09:48:31.729Z,14.43
2023-01-23T09:51:01.891Z,14.50
2023-01-23T09:53:34.198Z,14.38
2023-01-23T09:56:04.363Z,14.18
2023-01-23T09:58:34.894Z,14.68
2023-01-23T10:01:01.278Z,14.32
2023-01-23T10:03:29.525Z,15.15
2023-01-23T10:06:14.789Z,15.20
2023-01-23T10:08:41.513Z,14.95
2023-01-23T10:11:16.958Z,15.90
2023-01-23T10:16:18.782Z,15.10
2023-01-23T10:18:48.212Z,14.80
2023-01-23T10:21:29.804Z,15.32
2023-01-23T10:24:05.116Z,15.27
2023-01-23T10:26:33.514Z,15.85
2023-01-23T10:29:10.443Z,15.38
2023-01-23T10:31:44.303Z,14.45
2023-01-23T10:34:10.774Z,15.40
2023-01-23T10:36:53.458Z,15.23
2023-01-23T10:39:26.031Z,14.48
2023-01-23T10:42:01.426Z,15.98
2023-01-23T10:44:28.645Z,15.40
2023-01-23T10:46:56.981Z,15.23
2023-01-23T10:49:31.360Z,15.38
2023-01-23T10:51:57.797Z,16.10
2023-01-23T10:54:32.870Z,15.63
2023-01-23T10:57:01.601Z,16.33
2023-01-23T10:59:39.794Z,15.55
2023-01-23T11:02:16.130Z,14.52
2023-01-23T11:04:44.245Z,16.50
2023-01-23T11:07:21.844Z,15.95
2023-01-23T11:09:50.356Z,15.77
2023-01-23T11:12:21.483Z,15.60
2023-01-23T11:14:47.904Z,15.27
2023-01-23T11:17:15.682Z,15.23
2023-01-23T11:19:42.624Z,15.77
2023-01-23T11:22:27.729Z,16.00
2023-01-23T11:24:54.202Z,15.98
2023-01-23T11:27:24.408Z,16.48
2023-01-23T11:30:08.861Z,15.40
2023-01-23T11:32:43.028Z,15.88
2023-01-23T11:35:18.156Z,15.90
2023-01-23T11:37:44.511Z,15.50
2023-01-23T11:40:10.872Z,15.85
2023-01-23T11:42:40.148Z,16.08
2023-01-23T11:45:32.618Z,16.58
2023-01-23T11:48:23.127Z,15.20
2023-01-23T11:50:55.419Z,16.77
2023-01-23T11:53:41.947Z,16.38
2023-01-23T11:56:18.091Z,15.93
2023-01-23T11:59:12.363Z,15.93
2023-01-23T12:01:49.235Z,15.45
2023-01-23T12:04:36.862Z,16.67
2023-01-23T12:07:08.261Z,16.95
2023-01-23T12:09:40.898Z,16.33
2023-01-23T12:12:16.831Z,16.80
2023-01-23T12:14:43.187Z,16.77
2023-01-23T12:17:25.021Z,16.92
2023-01-23T12:20:01.729Z,17.05
2023-01-23T12:22:33.949Z,17.48
2023-01-23T12:25:14.054Z,16.95
2023-01-23T12:27:44.321Z,17.35
2023-01-23T12:30:29.281Z,16.73
2023-01-23T12:32:58.731Z,16.92
2023-01-23T12:35:31.221Z,16.42
2023-01-23T12:38:15.557Z,16.60
2023-01-23T12:40:44.986Z,17.05
2023-01-23T12:43:29.489Z,16.80
2023-01-23T12:46:07.169Z,17.58
2023-01-23T12:49:03.301Z,17.02
2023-01-23T12:51:36.563Z,18.60
2023-01-23T12:54:04.726Z,17.70
2023-01-23T12:56:33.671Z,15.57
2023-01-23T12:59:11.268Z,16.90
2023-01-23T13:01:53.009Z,17.65
2023-01-23T13:04:32.508Z,17.05
2023-01-23T13:07:06.301Z,17.55
2023-01-23T13:09:41.536Z,18.95
2023-01-23T13:12:22.263Z,16.83
2023-01-23T13:15:30.934Z,17.45
2023-01-23T13:17:37.994Z,17.70
2023-01-23T13:20:38.703Z,17.90
2023-01-23T13:23:20.264Z,17.55
2023-01-23T13:25:46.893Z,17.73
2023-01-23T13:28:43.966Z,18.00
2023-01-23T13:31:34.358Z,18.13
2023-01-23T13:34:15.064Z,17.42
2023-01-23T13:36:42.699Z,18.63
2023-01-23T13:39:18.278Z,19.23
2023-01-23T13:41:45.858Z,18.90
2023-01-23T13:44:18.928Z,19.50
2023-01-23T14:21:41.884Z,17.92
2023-01-23T14:24:23.130Z,18.95
2023-01-23T14:26:51.189Z,18.27
2023-01-23T14:29:22.054Z,17.55
2023-01-23T14:31:48.721Z,16.70
2023-01-23T14:34:17.903Z,17.85
2023-01-23T14:36:51.126Z,19.10
2023-01-23T14:39:18.967Z,18.48
2023-01-23T14:41:47.551Z,18.63
2023-01-23T14:44:40.144Z,17.88
2023-01-23T14:47:08.113Z,17.98
2023-01-23T14:49:36.471Z,19.42
2023-01-23T14:52:04.188Z,18.70
2023-01-23T14:54:33.277Z,20.75
2023-01-23T14:57:05.378Z,18.83
2023-01-23T14:59:37.083Z,19.90
2023-01-23T15:02:21.899Z,20.10
2023-01-23T15:05:07.317Z,20.13
2023-01-23T15:07:34.565Z,18.80
2023-01-23T15:10:00.973Z,18.75
2023-01-23T15:12:27.604Z,18.83
2023-01-23T15:14:55.271Z,18.92
2023-01-23T15:17:21.895Z,18.10
2023-01-23T15:19:54.254Z,18.98
2023-01-23T15:22:22.167Z,18.35
2023-01-23T15:24:48.757Z,18.63
2023-01-23T15:27:24.750Z,19.42
2023-01-23T15:29:52.012Z,19.88
2023-01-23T15:32:22.491Z,18.83
2023-01-23T15:34:54.178Z,19.20
2023-01-23T15:37:22.634Z,19.23
2023-01-23T15:39:50.584Z,18.67
2023-01-23T15:42:16.963Z,19.88
2023-01-23T15:44:43.520Z,19.08
2023-01-23T15:47:10.656Z,19.75
2023-01-23T15:49:39.333Z,20.58
2023-01-23T15:52:17.685Z,20.38
2023-01-23T15:54:45.519Z,21.55
2023-01-23T15:57:12.897Z,19.90
2023-01-23T15:59:39.608Z,21.30
2023-01-23T16:02:12.830Z,21.23
2023-01-23T16:04:41.612Z,20.35
2023-01-23T16:07:08.192Z,22.55
2023-01-23T16:09:36.658Z,21.00
2023-01-23T16:12:03.367Z,22.40
2023-01-23T16:14:29.772Z,21.65
2023-01-23T16:16:58.227Z,22.45
2023-01-23T16:19:31.177Z,21.40
2023-01-23T16:22:04.651Z,21.77
2023-01-23T16:24:34.940Z,20.83
2023-01-23T16:27:02.606Z,23.10
2023-01-23T16:29:30.115Z,22.50
2023-01-23T16:31:57.472Z,21.55
2023-01-23T16:34:26.207Z,22.77
2023-01-23T16:36:53.800Z,21.95
2023-01-23T16:39:22.789Z,22.50
2023-01-23T16:41:49.261Z,22.02
2023-01-23T16:44:18.232Z,23.23
2023-01-23T16:46:45.406Z,22.55
2023-01-23T16:49:12.404Z,22.05
2023-01-23T16:51:39.679Z,22.90
2023-01-23T16:54:18.379Z,22.52
2023-01-23T16:56:45.678Z,21.90
2023-01-23T16:59:17.464Z,23.33
2023-01-23T17:01:45.381Z,22.27
2023-01-23T17:04:13.883Z,22.88
2023-01-23T17:06:40.256Z,23.63
2023-01-23T17:09:07.052Z,24.90
2023-01-23T17:11:36.513Z,22.33
2023-01-23T17:14:05.321Z,24.23
2023-01-23T17:16:31.734Z,24.10
2023-01-23T17:18:59.814Z,23.42
2023-01-23T17:21:30.783Z,23.60
2023-01-23T17:23:57.297Z,23.73
2023-01-23T17:26:23.732Z,24.25
2023-01-23T17:28:50.343Z,23.80
2023-01-23T17:31:20.864Z,23.90
2023-01-23T17:33:47.737Z,23.75
2023-01-23T17:36:14.163Z,23.80
2023-01-23T17:38:41.958Z,23.75
2023-01-23T17:41:15.477Z,23.55
2023-01-23T17:43:44.300Z,23.02
2023-01-23T17:46:21.546Z,22.10
2023-01-23T17:48:48.276Z,21.98
2023-01-23T17:51:16.630Z,22.58
2023-01-23T17:53:43.080Z,22.83
2023-01-23T17:56:09.556Z,23.08
2023-01-23T17:58:37.769Z,24.40
2023-01-23T18:01:04.913Z,23.50
2023-01-23T18:03:31.300Z,23.45
2023-01-23T18:05:57.652Z,22.65
2023-01-23T18:08:24.107Z,23.02
2023-01-23T18:10:55.234Z,22.80
2023-01-23T18:13:29.523Z,22.30
2023-01-23T18:16:22.701Z,22.52
2023-01-23T18:18:54.219Z,23.08
2023-01-23T18:21:20.854Z,22.80
2023-01-23T18:23:47.771Z,22.30
2023-01-23T18:26:14.260Z,23.17
2023-01-23T18:28:59.500Z,23.40
2023-01-23T18:31:28.837Z,23.08
2023-01-23T18:34:14.352Z,23.73
2023-01-23T18:36:58.146Z,21.05
2023-01-23T18:39:24.468Z,22.15
2023-01-23T18:42:06.395Z,23.98
2023-01-23T18:44:34.831Z,21.98
2023-01-23T18:47:05.637Z,22.67
2023-01-23T18:49:33.236Z,23.05
2023-01-23T18:52:08.820Z,24.45
2023-01-23T18:54:38.219Z,23.05
2023-01-23T18:57:12.742Z,23.25
2023-01-23T18:59:42.309Z,23.73
2023-01-23T19:02:11.637Z,23.83
2023-01-23T19:04:42.899Z,21.90
2023-01-23T19:07:18.342Z,21.80
2023-01-23T19:09:46.667Z,22.05
2023-01-23T19:12:25.928Z,21.52
2023-01-23T19:15:04.690Z,22.73
2023-01-23T19:17:34.173Z,21.52
2023-01-23T19:20:18.927Z,23.50
2023-01-23T19:22:45.278Z,23.25
2023-01-23T19:25:16.028Z,22.10
2023-01-23T19:27:42.713Z,24.05
2023-01-23T19:30:11.333Z,23.48
2023-01-23T19:32:37.718Z,24.13
2023-01-23T19:35:13.785Z,23.90
2023-01-23T19:37:41.551Z,23.48
2023-01-23T19:40:09.367Z,23.33
2023-01-23T19:42:58.833Z,21.70
2023-01-23T19:45:30.005Z,23.30
2023-01-23T19:47:56.412Z,23.35
2023-01-23T19:50:22.846Z,21.35
2023-01-23T19:52:50.029Z,22.33
2023-01-23T19:55:30.486Z,22.10
2023-01-23T19:57:57.212Z,22.00
2023-01-23T20:00:24.794Z,22.17
2023-01-23T20:02:53.068Z,22.45
2023-01-23T20:05:20.281Z,23.02
2023-01-23T20:07:46.821Z,22.98
2023-01-23T20:10:13.234Z,21.83
2023-01-23T20:12:52.012Z,22.60
2023-01-23T20:15:20.260Z,21.70
2023-01-23T20:17:47.003Z,22.52
2023-01-23T20:20:13.434Z,22.55
2023-01-23T20:22:40.580Z,21.67
2023-01-23T20:25:08.543Z,21.85
2023-01-23T20:27:35.397Z,22.10
2023-01-23T20:30:02.727Z,22.08
2023-01-23T20:32:32.509Z,21.77
2023-01-23T20:34:59.318Z,22.38
2023-01-23T20:37:25.927Z,21.17
2023-01-23T20:39:52.455Z,21.70
2023-01-23T20:42:19.237Z,23.15
2023-01-23T20:44:45.583Z,22.55
2023-01-23T20:47:11.963Z,21.70
2023-01-23T20:49:38.516Z,22.20
2023-01-23T20:52:23.447Z,22.08
2023-01-23T20:54:49.839Z,21.80
2023-01-23T20:57:16.459Z,22.17
2023-01-23T20:59:42.838Z,20.73
2023-01-23T21:02:22.896Z,21.77
2023-01-23T21:04:53.010Z,20.88
2023-01-23T21:07:21.320Z,24.00
2023-01-23T21:09:50.880Z,23.02
2023-01-23T21:12:18.581Z,22.05
2023-01-23T21:14:44.921Z,21.83
2023-01-23T21:17:11.373Z,22.20
2023-01-23T21:19:39.078Z,19.92
2023-01-23T21:22:06.144Z,22.42
2023-01-23T21:24:34.443Z,19.70
2023-01-23T21:27:02.492Z,20.77
2023-01-23T21:29:29.017Z,20.50
2023-01-23T21:31:57.491Z,20.40
2023-01-23T21:34:26.487Z,19.55
2023-01-23T21:36:52.884Z,21.08
2023-01-23T21:39:19.678Z,21.40
2023-01-23T21:41:46.143Z,21.10
2023-01-23T21:44:13.050Z,21.10
2023-01-23T21:46:39.508Z,18.95
2023-01-23T21:49:05.951Z,19.52
2023-01-23T21:51:32.586Z,19.23
2023-01-23T21:53:58.986Z,19.17
2023-01-23T21:56:25.519Z,19.73
2023-01-23T21:58:52.594Z,19.95
2023-01-23T22:01:33.396Z,18.63
2023-01-23T22:04:01.166Z,19.58
2023-01-23T22:06:27.779Z,19.60
2023-01-23T22:08:54.124Z,18.05
2023-01-23T22:11:20.633Z,16.75
2023-01-23T22:13:47.353Z,18.33
2023-01-23T22:16:13.907Z,18.42
2023-01-23T22:18:40.314Z,19.38
2023-01-23T22:21:07.102Z,20.13
2023-01-23T22:23:33.737Z,19.10
2023-01-23T22:26:01.916Z,19.60
2023-01-23T22:28:28.507Z,19.90
2023-01-23T22:30:55.444Z,18.63
2023-01-23T22:33:22.508Z,19.08
2023-01-23T22:35:50.268Z,19.92
2023-01-23T22:38:16.652Z,19.83
2023-01-23T22:40:43.044Z,19.25
2023-01-23T22:43:10.252Z,18.15
2023-01-23T22:45:36.895Z,17.90
2023-01-23T22:48:03.264Z,17.40
2023-01-23T22:50:29.726Z,18.05
2023-01-23T22:52:56.064Z,16.77
2023-01-23T22:55:24.120Z,18.05
2023-01-23T22:57:52.493Z,17.73
2023-01-23T23:00:19.024Z,16.73
2023-01-23T23:02:45.403Z,15.80
2023-01-23T23:05:11.843Z,16.10
2023-01-23T23:07:38.400Z,17.48
2023-01-23T23:10:05.421Z,17.00
2023-01-23T23:12:32.115Z,17.17
2023-01-23T23:14:58.486Z,16.95
2023-01-23T23:17:25.306Z,16.13
2023-01-23T23:19:51.902Z,16.63
2023-01-23T23:22:18.267Z,17.92
2023-01-23T23:24:44.854Z,17.48
2023-01-23T23:27:11.233Z,17.25
2023-01-23T23:29:37.567Z,16.13
2023-01-23T23:32:04.024Z,16.20
2023-01-23T23:34:30.501Z,16.00
2023-01-23T23:36:57.141Z,15.75
2023-01-23T23:39:23.610Z,14.93
2023-01-23T23:41:50.258Z,15.95
2023-01-23T23:44:17.013Z,15.27
2023-01-23T23:46:43.418Z,15.15
2023-01-23T23:49:09.987Z,15.35
2023-01-23T23:51:36.349Z,16.10
2023-01-23T23:54:02.825Z,15.48
2023-01-23T23:56:29.248Z,14.38
2023-01-23T23:58:56.240Z,16.15
